createdAt,value
2019-05-26T00:00:30.616Z,14.60
2019-05-26T00:01:30.598Z,13.50
2019-05-26T00:02:30.559Z,13.40
2019-05-26T00:03:30.594Z,13.30
2019-05-26T00:04:30.570Z,13.50
2019-05-26T00:05:30.553Z,13.90
2019-05-26T00:06:30.613Z,13.10
2019-05-26T00:07:31.040Z,13.00
2019-05-26T00:08:30.575Z,13.90
2019-05-26T00:09:30.611Z,13.20
2019-05-26T00:10:30.568Z,13.30
2019-05-26T00:11:30.612Z,12.50
2019-05-26T00:12:30.610Z,12.40
2019-05-26T00:13:30.587Z,12.90
2019-05-26T00:14:30.613Z,13.30
2019-05-26T00:15:30.604Z,13.10
2019-05-26T00:16:30.590Z,13.50
2019-05-26T00:17:30.599Z,14.30
2019-05-26T00:18:33.237Z,12.80
2019-05-26T00:19:30.621Z,13.10
2019-05-26T00:20:30.559Z,12.70
2019-05-26T00:21:30.616Z,13.90
2019-05-26T00:22:30.580Z,13.60
2019-05-26T00:23:30.638Z,13.50
2019-05-26T00:24:30.640Z,13.70
2019-05-26T00:25:30.610Z,14.00
2019-05-26T00:26:30.583Z,13.50
2019-05-26T00:27:30.609Z,14.00
2019-05-26T00:28:30.593Z,14.30
2019-05-26T00:29:30.598Z,13.70
2019-05-26T00:30:30.634Z,13.70
2019-05-26T00:31:30.637Z,14.20
2019-05-26T00:32:30.591Z,15.00
2019-05-26T00:33:30.616Z,14.90
2019-05-26T00:34:30.592Z,14.20
2019-05-26T00:35:30.580Z,13.90
2019-05-26T00:36:30.641Z,14.10
2019-05-26T00:37:45.683Z,13.70
2019-05-26T00:38:30.591Z,13.00
2019-05-26T00:39:30.629Z,12.30
2019-05-26T00:40:30.597Z,12.30
2019-05-26T00:41:30.631Z,13.90
2019-05-26T00:42:30.651Z,15.10
2019-05-26T00:43:30.648Z,14.50
2019-05-26T00:44:30.590Z,13.40
2019-05-26T00:45:30.620Z,14.90
2019-05-26T00:46:30.609Z,14.80
2019-05-26T00:47:30.592Z,14.70
2019-05-26T00:48:30.643Z,14.80
2019-05-26T00:49:30.655Z,15.20
2019-05-26T00:50:30.582Z,14.80
2019-05-26T00:51:30.639Z,15.90
2019-05-26T00:52:30.615Z,15.80
2019-05-26T00:53:30.595Z,15.20
2019-05-26T00:54:30.668Z,14.70
2019-05-26T00:55:30.650Z,15.20
2019-05-26T00:56:30.598Z,15.60
2019-05-26T00:57:30.655Z,16.00
2019-05-26T00:58:30.622Z,14.30
2019-05-26T00:59:30.627Z,15.20
2019-05-26T01:00:30.663Z,14.50
2019-05-26T01:01:30.632Z,15.40
2019-05-26T01:02:30.596Z,15.10
2019-05-26T01:03:30.657Z,14.50
2019-05-26T01:04:30.631Z,15.80
2019-05-26T01:05:30.630Z,14.30
2019-05-26T01:06:30.659Z,14.30
2019-05-26T01:07:30.634Z,14.90
2019-05-26T01:08:30.603Z,13.70
2019-05-26T01:09:30.653Z,14.00
2019-05-26T01:10:30.641Z,14.00
2019-05-26T01:11:30.624Z,13.70
2019-05-26T01:12:30.669Z,14.10
2019-05-26T01:13:30.666Z,14.30
2019-05-26T01:14:30.611Z,14.50
2019-05-26T01:15:30.655Z,14.10
2019-05-26T01:16:30.633Z,13.90
2019-05-26T01:17:30.630Z,13.80
2019-05-26T01:18:30.685Z,14.00
2019-05-26T01:19:30.654Z,14.70
2019-05-26T01:20:30.662Z,14.20
2019-05-26T01:21:30.657Z,13.70
2019-05-26T01:22:30.648Z,12.90
2019-05-26T01:23:30.609Z,13.70
2019-05-26T01:24:30.684Z,13.10
2019-05-26T01:25:30.673Z,13.30
2019-05-26T01:26:30.642Z,13.50
2019-05-26T01:27:30.660Z,14.50
2019-05-26T01:28:30.658Z,14.60
2019-05-26T01:29:30.651Z,15.10
2019-05-26T01:30:30.683Z,14.60
2019-05-26T01:31:30.665Z,13.20
2019-05-26T01:32:30.633Z,14.90
2019-05-26T01:33:30.674Z,14.60
2019-05-26T01:34:30.663Z,14.50
2019-05-26T01:35:30.638Z,14.20
2019-05-26T01:36:30.689Z,14.60
2019-05-26T01:37:30.678Z,13.40
2019-05-26T01:38:30.634Z,13.30
2019-05-26T01:39:30.692Z,14.30
2019-05-26T01:40:30.671Z,13.60
2019-05-26T01:41:30.668Z,14.10
2019-05-26T01:42:30.713Z,14.20
2019-05-26T01:43:30.672Z,14.20
2019-05-26T01:44:30.644Z,14.20
2019-05-26T01:45:30.685Z,14.20
2019-05-26T01:46:30.667Z,13.90
2019-05-26T01:47:30.631Z,13.50
2019-05-26T01:48:30.705Z,13.30
2019-05-26T01:49:30.688Z,14.20
2019-05-26T01:50:30.645Z,13.80
2019-05-26T01:51:30.682Z,14.70
2019-05-26T01:52:30.680Z,13.50
2019-05-26T01:53:30.684Z,13.70
2019-05-26T01:54:30.712Z,13.60
2019-05-26T01:55:30.698Z,14.70
2019-05-26T01:56:30.650Z,13.90
2019-05-26T01:57:30.695Z,14.60
2019-05-26T01:58:30.676Z,14.50
2019-05-26T01:59:30.676Z,14.90
2019-05-26T02:00:30.717Z,15.60
2019-05-26T02:01:30.691Z,15.20
2019-05-26T02:02:30.668Z,14.60
2019-05-26T02:03:30.685Z,15.20
2019-05-26T02:04:30.820Z,15.10
2019-05-26T02:05:30.712Z,14.50
2019-05-26T02:06:30.722Z,14.30
2019-05-26T02:07:30.726Z,15.60
2019-05-26T02:08:38.700Z,14.60
2019-05-26T02:09:30.689Z,14.90
2019-05-26T02:10:30.713Z,14.30
2019-05-26T02:11:30.706Z,14.20
2019-05-26T02:12:30.713Z,13.60
2019-05-26T02:13:30.732Z,14.90
2019-05-26T02:14:30.665Z,13.90
2019-05-26T02:15:30.702Z,13.40
2019-05-26T02:16:30.709Z,13.50
2019-05-26T02:17:30.675Z,13.90
2019-05-26T02:18:30.734Z,14.10
2019-05-26T02:19:30.697Z,13.40
2019-05-26T02:20:30.662Z,13.80
2019-05-26T02:21:30.722Z,14.10
2019-05-26T02:22:30.696Z,14.90
2019-05-26T02:23:30.671Z,14.00
2019-05-26T02:24:30.729Z,13.70
2019-05-26T02:25:30.722Z,14.00
2019-05-26T02:26:30.693Z,13.70
2019-05-26T02:27:30.719Z,14.10
2019-05-26T02:28:30.708Z,13.90
2019-05-26T02:29:30.673Z,13.70
2019-05-26T02:30:30.785Z,13.70
2019-05-26T02:31:30.721Z,14.20
2019-05-26T02:32:30.680Z,14.40
2019-05-26T02:33:30.714Z,14.40
2019-05-26T02:34:30.736Z,13.50
2019-05-26T02:35:30.681Z,13.60
2019-05-26T02:36:30.741Z,13.40
2019-05-26T02:37:30.733Z,13.50
2019-05-26T02:38:30.697Z,13.00
2019-05-26T02:39:30.738Z,12.10
2019-05-26T02:40:30.723Z,13.20
2019-05-26T02:41:30.722Z,13.80
2019-05-26T02:42:30.758Z,13.40
2019-05-26T02:43:30.729Z,13.30
2019-05-26T02:44:30.697Z,14.10
2019-05-26T02:45:30.733Z,13.30
2019-05-26T02:46:30.725Z,14.60
2019-05-26T02:47:30.730Z,13.20
2019-05-26T02:48:30.748Z,13.80
2019-05-26T02:49:30.742Z,13.10
2019-05-26T02:50:30.726Z,13.60
2019-05-26T02:51:30.736Z,13.30
2019-05-26T02:52:30.724Z,13.90
2019-05-26T02:53:30.729Z,13.40
2019-05-26T02:54:30.748Z,14.10
2019-05-26T02:55:30.734Z,14.70
2019-05-26T02:56:30.715Z,14.60
2019-05-26T02:57:30.739Z,14.90
2019-05-26T02:58:30.740Z,14.20
2019-05-26T02:59:30.730Z,14.30
2019-05-26T03:00:30.765Z,14.50
2019-05-26T03:01:30.736Z,14.20
2019-05-26T03:02:30.703Z,14.90
2019-05-26T03:03:30.751Z,14.10
2019-05-26T03:04:30.802Z,13.90
2019-05-26T03:05:30.746Z,13.70
2019-05-26T03:06:30.768Z,15.80
2019-05-26T03:07:30.761Z,14.40
2019-05-26T03:08:30.761Z,14.70
2019-05-26T03:09:30.763Z,14.20
2019-05-26T03:10:30.729Z,15.30
2019-05-26T03:11:30.743Z,14.70
2019-05-26T03:12:30.799Z,14.90
2019-05-26T03:13:30.765Z,15.30
2019-05-26T03:14:30.751Z,15.10
2019-05-26T03:15:30.755Z,14.90
2019-05-26T03:16:30.763Z,14.40
2019-05-26T03:17:30.750Z,15.50
2019-05-26T03:18:30.776Z,14.90
2019-05-26T03:19:30.752Z,14.70
2019-05-26T03:20:30.756Z,13.70
2019-05-26T03:21:30.765Z,13.50
2019-05-26T03:22:30.744Z,13.80
2019-05-26T03:23:30.742Z,14.20
2019-05-26T03:24:30.773Z,14.80
2019-05-26T03:25:30.764Z,14.50
2019-05-26T03:26:30.768Z,14.40
2019-05-26T03:27:30.778Z,14.80
2019-05-26T03:28:30.751Z,14.70
2019-05-26T03:29:30.739Z,15.50
2019-05-26T03:30:30.794Z,14.10
2019-05-26T03:31:30.774Z,15.80
2019-05-26T03:32:30.766Z,14.70
2019-05-26T03:33:30.785Z,14.80
2019-05-26T03:34:30.773Z,15.80
2019-05-26T03:35:30.754Z,14.10
2019-05-26T03:36:30.773Z,14.70
2019-05-26T03:37:30.784Z,15.00
2019-05-26T03:38:30.757Z,15.50
2019-05-26T03:39:43.336Z,15.00
2019-05-26T03:40:30.771Z,14.10
2019-05-26T03:41:30.768Z,14.00
2019-05-26T03:42:30.801Z,16.10
2019-05-26T03:43:30.784Z,16.80
2019-05-26T03:44:30.739Z,15.80
2019-05-26T03:45:30.790Z,15.00
2019-05-26T03:46:30.781Z,15.00
2019-05-26T03:47:30.806Z,14.70
2019-05-26T03:48:30.808Z,16.40
2019-05-26T03:49:30.770Z,15.90
2019-05-26T03:50:30.744Z,15.80
2019-05-26T03:51:30.788Z,17.30
2019-05-26T03:52:30.790Z,15.80
2019-05-26T03:53:30.764Z,15.50
2019-05-26T03:54:30.808Z,14.30
2019-05-26T03:55:30.799Z,15.10
2019-05-26T03:56:30.766Z,13.60
2019-05-26T03:57:30.789Z,13.60
2019-05-26T03:58:30.781Z,13.50
2019-05-26T03:59:30.772Z,16.60
2019-05-26T04:00:30.809Z,14.20
2019-05-26T04:01:30.790Z,14.90
2019-05-26T04:02:30.754Z,13.90
2019-05-26T04:03:30.800Z,13.60
2019-05-26T04:04:30.810Z,13.30
2019-05-26T04:05:30.766Z,12.90
2019-05-26T04:06:30.809Z,14.40
2019-05-26T04:07:30.804Z,14.40
2019-05-26T04:08:30.763Z,14.20
2019-05-26T04:09:30.801Z,14.10
2019-05-26T04:10:30.765Z,14.00
2019-05-26T04:11:30.811Z,14.70
2019-05-26T04:12:30.825Z,15.10
2019-05-26T04:13:30.815Z,14.10
2019-05-26T04:14:30.807Z,13.60
2019-05-26T04:15:30.817Z,14.50
2019-05-26T04:16:30.796Z,14.90
2019-05-26T04:17:30.774Z,15.60
2019-05-26T04:18:30.834Z,15.50
2019-05-26T04:19:30.803Z,15.60
2019-05-26T04:20:30.798Z,14.20
2019-05-26T04:21:30.814Z,15.30
2019-05-26T04:22:30.805Z,14.30
2019-05-26T04:23:30.796Z,14.10
2019-05-26T04:24:30.838Z,13.50
2019-05-26T04:25:30.811Z,13.60
2019-05-26T04:26:30.862Z,14.40
2019-05-26T04:27:30.828Z,14.90
2019-05-26T04:28:30.800Z,15.50
2019-05-26T04:29:30.796Z,14.70
2019-05-26T04:30:30.835Z,14.60
2019-05-26T04:31:30.823Z,14.60
2019-05-26T04:32:30.786Z,14.70
2019-05-26T04:33:30.832Z,15.90
2019-05-26T04:34:30.797Z,14.20
2019-05-26T04:35:30.814Z,13.60
2019-05-26T04:36:30.842Z,14.10
2019-05-26T04:37:30.819Z,14.40
2019-05-26T04:38:30.822Z,13.80
2019-05-26T04:39:30.827Z,13.50
2019-05-26T04:40:30.807Z,13.50
2019-05-26T04:41:30.818Z,14.20
2019-05-26T04:42:30.846Z,12.10
2019-05-26T04:43:30.830Z,13.20
2019-05-26T04:44:30.780Z,12.80
2019-05-26T04:45:30.828Z,12.50
2019-05-26T04:46:30.821Z,11.90
2019-05-26T04:47:30.816Z,12.20
2019-05-26T04:48:30.846Z,11.70
2019-05-26T04:49:30.844Z,11.40
2019-05-26T04:50:30.824Z,11.30
2019-05-26T04:51:30.836Z,11.80
2019-05-26T04:52:30.819Z,12.00
2019-05-26T04:53:30.800Z,10.90
2019-05-26T04:54:30.853Z,12.00
2019-05-26T04:55:30.861Z,12.60
2019-05-26T04:56:30.821Z,11.20
2019-05-26T04:57:30.839Z,11.30
2019-05-26T04:58:30.822Z,11.80
2019-05-26T04:59:30.843Z,11.90
2019-05-26T05:00:30.855Z,12.70
2019-05-26T05:01:30.842Z,12.80
2019-05-26T05:02:30.820Z,12.30
2019-05-26T05:03:30.851Z,12.60
2019-05-26T05:04:30.825Z,12.10
2019-05-26T05:05:30.817Z,11.70
2019-05-26T05:06:30.865Z,10.80
2019-05-26T05:07:30.854Z,12.00
2019-05-26T05:08:30.832Z,11.70
2019-05-26T05:09:30.853Z,10.80
2019-05-26T05:10:41.956Z,10.90
2019-05-26T05:11:30.822Z,11.00
2019-05-26T05:12:30.859Z,10.10
2019-05-26T05:13:30.880Z,10.30
2019-05-26T05:14:30.832Z,10.70
2019-05-26T05:15:30.855Z,9.80
2019-05-26T05:16:30.848Z,10.50
2019-05-26T05:17:30.835Z,10.50
2019-05-26T05:18:30.865Z,9.90
2019-05-26T05:19:30.870Z,10.10
2019-05-26T05:20:30.845Z,9.90
2019-05-26T05:21:30.861Z,9.90
2019-05-26T05:22:30.856Z,9.80
2019-05-26T05:23:30.842Z,10.00
2019-05-26T05:24:30.893Z,10.00
2019-05-26T05:25:30.864Z,9.60
2019-05-26T05:26:30.863Z,10.00
2019-05-26T05:27:30.867Z,10.10
2019-05-26T05:28:30.846Z,9.80
2019-05-26T05:29:30.862Z,10.10
2019-05-26T05:30:30.877Z,9.70
2019-05-26T05:31:30.898Z,9.00
2019-05-26T05:32:32.888Z,8.70
2019-05-26T05:33:30.874Z,9.00
2019-05-26T05:34:30.855Z,9.30
2019-05-26T05:35:30.879Z,8.90
2019-05-26T05:36:30.871Z,9.00
2019-05-26T05:37:30.879Z,9.10
2019-05-26T05:38:30.856Z,9.60
2019-05-26T05:39:30.866Z,9.30
2019-05-26T05:40:30.857Z,8.70
2019-05-26T05:41:30.857Z,9.10
2019-05-26T05:42:30.907Z,9.10
2019-05-26T05:43:30.904Z,8.70
2019-05-26T05:44:30.856Z,8.30
2019-05-26T05:45:30.883Z,9.00
2019-05-26T05:46:30.886Z,8.50
2019-05-26T05:47:30.871Z,9.00
2019-05-26T05:48:30.920Z,8.90
2019-05-26T05:49:30.946Z,8.50
2019-05-26T05:50:30.874Z,8.60
2019-05-26T05:51:30.881Z,8.40
2019-05-26T05:52:30.876Z,8.50
2019-05-26T05:53:30.894Z,8.10
2019-05-26T05:54:30.897Z,8.50
2019-05-26T05:55:30.924Z,8.40
2019-05-26T05:56:30.869Z,8.50
2019-05-26T05:57:30.896Z,8.20
2019-05-26T05:58:30.865Z,8.80
2019-05-26T05:59:30.869Z,8.10
2019-05-26T06:00:30.916Z,8.40
2019-05-26T06:01:30.942Z,7.90
2019-05-26T06:02:30.900Z,7.80
2019-05-26T06:03:30.890Z,8.80
2019-05-26T06:04:30.875Z,8.10
2019-05-26T06:05:30.877Z,8.40
2019-05-26T06:06:30.936Z,9.00
2019-05-26T06:07:30.906Z,8.60
2019-05-26T06:08:30.889Z,7.90
2019-05-26T06:09:30.904Z,7.70
2019-05-26T06:10:30.891Z,8.50
2019-05-26T06:11:30.889Z,8.20
2019-05-26T06:12:30.923Z,8.20
2019-05-26T06:13:30.909Z,8.50
2019-05-26T06:14:30.900Z,8.20
2019-05-26T06:15:30.906Z,8.10
2019-05-26T06:16:30.886Z,7.90
2019-05-26T06:17:31.106Z,7.50
2019-05-26T06:18:30.921Z,7.40
2019-05-26T06:19:30.919Z,8.50
2019-05-26T06:20:30.898Z,7.90
2019-05-26T06:21:30.920Z,8.20
2019-05-26T06:22:30.896Z,7.20
2019-05-26T06:23:30.901Z,7.70
2019-05-26T06:24:30.936Z,6.10
2019-05-26T06:25:30.915Z,6.00
2019-05-26T06:26:30.905Z,6.40
2019-05-26T06:27:30.908Z,6.70
2019-05-26T06:28:30.905Z,6.00
2019-05-26T06:29:30.904Z,6.40
2019-05-26T06:30:30.947Z,6.00
2019-05-26T06:31:30.951Z,5.70
2019-05-26T06:32:30.933Z,6.10
2019-05-26T06:33:30.968Z,5.80
2019-05-26T06:34:30.987Z,5.80
2019-05-26T06:35:32.817Z,6.10
2019-05-26T06:36:31.032Z,6.00
2019-05-26T06:37:30.993Z,5.70
2019-05-26T06:38:31.078Z,5.90
2019-05-26T06:39:31.047Z,5.90
2019-05-26T06:40:31.036Z,6.10
2019-05-26T06:41:33.766Z,5.60
2019-05-26T06:42:31.072Z,5.40
2019-05-26T06:43:31.043Z,5.40
2019-05-26T06:44:31.042Z,5.90
2019-05-26T06:45:31.073Z,5.50
2019-05-26T06:46:31.071Z,5.50
2019-05-26T06:47:31.073Z,5.60
2019-05-26T06:48:31.096Z,5.40
2019-05-26T06:49:31.056Z,4.80
2019-05-26T06:50:31.073Z,5.40
2019-05-26T06:51:31.074Z,5.30
2019-05-26T06:52:31.064Z,5.10
2019-05-26T06:53:31.083Z,5.30
2019-05-26T06:54:31.104Z,5.50
2019-05-26T06:55:31.060Z,5.70
2019-05-26T06:56:31.071Z,5.20
2019-05-26T06:57:31.090Z,5.40
2019-05-26T06:58:31.058Z,5.10
2019-05-26T06:59:31.077Z,5.50
2019-05-26T07:00:31.099Z,5.50
2019-05-26T07:01:31.070Z,5.00
2019-05-26T07:02:31.062Z,5.10
2019-05-26T07:03:31.081Z,5.60
2019-05-26T07:04:31.078Z,5.70
2019-05-26T07:05:31.106Z,5.00
2019-05-26T07:06:31.109Z,5.40
2019-05-26T07:07:31.097Z,5.20
2019-05-26T07:08:31.080Z,5.10
2019-05-26T07:09:31.095Z,4.90
2019-05-26T07:10:31.075Z,4.90
2019-05-26T07:11:31.136Z,5.30
2019-05-26T07:12:31.114Z,5.00
2019-05-26T07:13:31.088Z,4.80
2019-05-26T07:14:31.096Z,4.90
2019-05-26T07:15:31.111Z,4.70
2019-05-26T07:16:38.120Z,4.90
2019-05-26T07:17:31.105Z,4.80
2019-05-26T07:18:31.093Z,4.90
2019-05-26T07:19:31.092Z,4.70
2019-05-26T07:20:31.076Z,4.80
2019-05-26T07:21:31.111Z,4.70
2019-05-26T07:22:31.125Z,5.00
2019-05-26T07:23:31.113Z,4.60
2019-05-26T07:24:31.138Z,4.50
2019-05-26T07:25:31.110Z,4.60
2019-05-26T07:26:31.074Z,4.80
2019-05-26T07:27:31.116Z,4.60
2019-05-26T07:28:31.096Z,4.60
2019-05-26T07:29:31.103Z,5.00
2019-05-26T07:30:31.130Z,4.60
2019-05-26T07:31:31.117Z,5.10
2019-05-26T07:32:31.109Z,4.50
2019-05-26T07:33:31.118Z,5.10
2019-05-26T07:34:31.111Z,4.60
2019-05-26T07:35:33.022Z,4.60
2019-05-26T07:36:31.147Z,4.40
2019-05-26T07:37:31.104Z,5.00
2019-05-26T07:38:31.116Z,4.70
2019-05-26T07:39:31.132Z,4.90
2019-05-26T07:40:31.126Z,4.80
2019-05-26T07:41:31.106Z,4.70
2019-05-26T07:42:31.161Z,4.90
2019-05-26T07:43:31.116Z,4.60
2019-05-26T07:44:31.143Z,4.50
2019-05-26T07:45:31.129Z,4.60
2019-05-26T07:46:31.115Z,4.70
2019-05-26T07:47:31.118Z,4.40
2019-05-26T07:48:34.877Z,4.70
2019-05-26T07:49:31.116Z,5.60
2019-05-26T07:50:31.122Z,5.40
2019-05-26T07:51:31.135Z,5.90
2019-05-26T07:52:31.130Z,5.30
2019-05-26T07:53:31.127Z,5.20
2019-05-26T07:54:31.147Z,5.00
2019-05-26T07:55:31.126Z,4.40
2019-05-26T07:56:31.145Z,4.30
2019-05-26T07:57:31.145Z,4.00
2019-05-26T07:58:31.107Z,4.80
2019-05-26T07:59:31.161Z,4.00
2019-05-26T08:00:31.163Z,4.30
2019-05-26T08:01:36.076Z,4.50
2019-05-26T08:02:31.148Z,4.20
2019-05-26T08:03:31.153Z,4.50
2019-05-26T08:04:31.147Z,4.30
2019-05-26T08:05:31.148Z,4.50
2019-05-26T08:06:31.183Z,4.20
2019-05-26T08:07:31.150Z,4.90
2019-05-26T08:08:31.145Z,4.50
2019-05-26T08:09:31.148Z,4.40
2019-05-26T08:10:31.137Z,4.30
2019-05-26T08:11:31.136Z,4.20
2019-05-26T08:12:31.189Z,4.20
2019-05-26T08:13:31.147Z,4.50
2019-05-26T08:14:31.150Z,4.20
2019-05-26T08:15:31.168Z,4.20
2019-05-26T08:16:31.554Z,4.40
2019-05-26T08:17:31.172Z,4.20
2019-05-26T08:18:31.191Z,4.10
2019-05-26T08:19:31.318Z,4.40
2019-05-26T08:20:31.158Z,4.60
2019-05-26T08:21:31.165Z,4.50
2019-05-26T08:22:31.145Z,4.90
2019-05-26T08:23:31.159Z,4.60
2019-05-26T08:24:31.189Z,4.60
2019-05-26T08:25:31.154Z,4.00
2019-05-26T08:26:31.170Z,4.40
2019-05-26T08:27:31.170Z,4.30
2019-05-26T08:28:31.155Z,4.30
2019-05-26T08:29:31.169Z,4.10
2019-05-26T08:30:31.195Z,4.30
2019-05-26T08:31:31.157Z,4.10
2019-05-26T08:32:31.162Z,4.10
2019-05-26T08:33:31.171Z,4.00
2019-05-26T08:34:31.156Z,4.20
2019-05-26T08:35:31.186Z,4.50
2019-05-26T08:36:31.189Z,4.30
2019-05-26T08:37:31.159Z,10.40
2019-05-26T08:38:31.187Z,4.60
2019-05-26T08:39:31.176Z,4.60
2019-05-26T08:40:31.163Z,4.10
2019-05-26T08:41:31.190Z,4.10
2019-05-26T08:42:43.807Z,4.30
2019-05-26T08:43:31.224Z,4.80
2019-05-26T08:44:31.203Z,4.80
2019-05-26T08:45:31.196Z,4.40
2019-05-26T08:46:31.185Z,4.40
2019-05-26T08:47:31.190Z,4.40
2019-05-26T08:48:31.211Z,4.50
2019-05-26T08:49:31.178Z,4.30
2019-05-26T08:50:34.262Z,3.90
2019-05-26T08:51:31.213Z,3.90
2019-05-26T08:52:31.185Z,4.70
2019-05-26T08:53:31.167Z,4.20
2019-05-26T08:54:31.232Z,4.20
2019-05-26T08:55:31.189Z,4.20
2019-05-26T08:56:31.175Z,4.60
2019-05-26T08:57:31.212Z,3.80
2019-05-26T08:58:31.184Z,4.10
2019-05-26T08:59:31.181Z,4.40
2019-05-26T09:00:31.232Z,4.50
2019-05-26T09:01:31.180Z,4.10
2019-05-26T09:02:31.195Z,4.10
2019-05-26T09:03:31.205Z,3.70
2019-05-26T09:04:31.194Z,4.00
2019-05-26T09:05:31.227Z,3.90
2019-05-26T09:06:31.245Z,3.90
2019-05-26T09:07:31.201Z,3.80
2019-05-26T09:08:31.211Z,3.70
2019-05-26T09:09:31.246Z,3.80
2019-05-26T09:10:31.201Z,3.70
2019-05-26T09:11:31.217Z,3.90
2019-05-26T09:12:31.233Z,3.50
2019-05-26T09:13:31.198Z,3.50
2019-05-26T09:14:31.196Z,3.60
2019-05-26T09:15:31.208Z,3.90
2019-05-26T09:16:31.198Z,3.60
2019-05-26T09:17:31.202Z,4.20
2019-05-26T09:18:31.229Z,3.90
2019-05-26T09:19:31.222Z,3.90
2019-05-26T09:20:31.226Z,3.60
2019-05-26T09:21:31.225Z,3.60
2019-05-26T09:22:31.228Z,5.60
2019-05-26T09:23:31.212Z,6.80
2019-05-26T09:24:31.249Z,6.20
2019-05-26T09:25:31.222Z,4.00
2019-05-26T09:26:31.226Z,3.70
2019-05-26T09:27:31.234Z,3.70
2019-05-26T09:28:31.224Z,3.70
2019-05-26T09:29:31.256Z,4.90
2019-05-26T09:30:31.264Z,3.70
2019-05-26T09:31:34.102Z,4.10
2019-05-26T09:32:31.234Z,3.70
2019-05-26T09:33:31.241Z,4.00
2019-05-26T09:34:31.246Z,3.80
2019-05-26T09:35:31.246Z,3.80
2019-05-26T09:36:31.260Z,3.60
2019-05-26T09:37:31.236Z,3.60
2019-05-26T09:38:31.241Z,3.60
2019-05-26T09:39:31.264Z,3.40
2019-05-26T09:40:31.244Z,3.50
2019-05-26T09:41:31.265Z,3.30
2019-05-26T09:42:31.259Z,3.90
2019-05-26T09:43:31.228Z,3.80
2019-05-26T09:44:31.229Z,3.80
2019-05-26T09:45:31.252Z,3.60
2019-05-26T09:46:31.253Z,3.80
2019-05-26T09:47:31.260Z,3.60
2019-05-26T09:48:31.260Z,3.60
2019-05-26T09:49:31.236Z,3.40
2019-05-26T09:50:31.255Z,3.40
2019-05-26T09:51:31.261Z,3.70
2019-05-26T09:52:31.295Z,3.50
2019-05-26T09:53:31.255Z,3.90
2019-05-26T09:54:31.274Z,3.90
2019-05-26T09:55:31.245Z,3.50
2019-05-26T09:56:31.263Z,3.50
2019-05-26T09:57:31.287Z,3.40
2019-05-26T09:58:31.252Z,3.70
2019-05-26T09:59:31.257Z,3.30
2019-05-26T10:00:31.256Z,3.70
2019-05-26T10:01:31.264Z,4.00
2019-05-26T10:02:31.277Z,3.50
2019-05-26T10:03:31.299Z,3.80
2019-05-26T10:04:31.263Z,4.10
2019-05-26T10:05:31.275Z,3.40
2019-05-26T10:06:31.298Z,3.70
2019-05-26T10:07:31.259Z,3.60
2019-05-26T10:08:31.281Z,3.80
2019-05-26T10:09:31.301Z,3.70
2019-05-26T10:10:31.276Z,3.80
2019-05-26T10:11:31.274Z,3.50
2019-05-26T10:12:31.290Z,3.40
2019-05-26T10:13:32.159Z,3.70
2019-05-26T10:14:31.295Z,3.60
2019-05-26T10:15:31.321Z,3.70
2019-05-26T10:16:31.276Z,3.40
2019-05-26T10:17:31.265Z,3.60
2019-05-26T10:18:31.289Z,3.50
2019-05-26T10:19:31.274Z,3.40
2019-05-26T10:20:31.302Z,3.70
2019-05-26T10:21:31.320Z,3.40
2019-05-26T10:22:31.281Z,3.50
2019-05-26T10:23:31.282Z,3.80
2019-05-26T10:24:31.299Z,3.80
2019-05-26T10:25:31.284Z,3.50
2019-05-26T10:26:31.293Z,3.40
2019-05-26T10:27:31.306Z,3.50
2019-05-26T10:28:31.289Z,3.80
2019-05-26T10:29:31.286Z,3.40
2019-05-26T10:30:31.303Z,3.40
2019-05-26T10:31:31.303Z,3.90
2019-05-26T10:32:31.295Z,3.50
2019-05-26T10:33:31.326Z,3.40
2019-05-26T10:34:31.290Z,3.50
2019-05-26T10:35:31.304Z,3.50
2019-05-26T10:36:31.314Z,3.80
2019-05-26T10:37:31.316Z,3.50
2019-05-26T10:38:31.336Z,3.80
2019-05-26T10:39:31.331Z,3.70
2019-05-26T10:40:31.290Z,3.70
2019-05-26T10:41:31.305Z,3.90
2019-05-26T10:42:31.318Z,3.90
2019-05-26T10:43:44.532Z,3.70
2019-05-26T10:44:31.342Z,4.00
2019-05-26T10:45:34.295Z,4.20
2019-05-26T10:46:31.302Z,3.70
2019-05-26T10:47:31.311Z,3.80
2019-05-26T10:48:31.334Z,3.60
2019-05-26T10:49:31.331Z,3.90
2019-05-26T10:50:31.312Z,3.80
2019-05-26T10:51:31.351Z,3.80
2019-05-26T10:52:31.315Z,3.70
2019-05-26T10:53:31.313Z,4.30
2019-05-26T10:54:31.337Z,4.10
2019-05-26T10:55:31.322Z,3.70
2019-05-26T10:56:31.338Z,3.80
2019-05-26T10:57:31.362Z,3.70
2019-05-26T10:58:31.327Z,3.50
2019-05-26T10:59:31.401Z,3.60
2019-05-26T11:00:33.090Z,3.60
2019-05-26T11:01:31.337Z,3.50
2019-05-26T11:02:31.352Z,3.60
2019-05-26T11:03:31.360Z,4.00
2019-05-26T11:04:31.325Z,3.60
2019-05-26T11:05:31.334Z,3.60
2019-05-26T11:06:31.341Z,3.70
2019-05-26T11:07:31.327Z,3.90
2019-05-26T11:08:31.355Z,3.20
2019-05-26T11:09:31.364Z,3.60
2019-05-26T11:10:31.331Z,3.50
2019-05-26T11:11:31.341Z,3.70
2019-05-26T11:12:31.356Z,3.30
2019-05-26T11:13:31.331Z,3.30
2019-05-26T11:14:31.360Z,3.60
2019-05-26T11:15:31.369Z,3.70
2019-05-26T11:16:31.352Z,3.40
2019-05-26T11:17:31.346Z,3.60
2019-05-26T11:18:31.364Z,3.40
2019-05-26T11:19:31.349Z,3.50
2019-05-26T11:20:31.391Z,3.40
2019-05-26T11:21:31.393Z,3.10
2019-05-26T11:22:31.350Z,3.30
2019-05-26T11:23:31.384Z,3.40
2019-05-26T11:24:31.366Z,3.50
2019-05-26T11:25:31.348Z,3.20
2019-05-26T11:26:31.371Z,3.50
2019-05-26T11:27:31.380Z,3.20
2019-05-26T11:28:31.372Z,3.40
2019-05-26T11:29:31.338Z,3.60
2019-05-26T11:30:31.381Z,3.40
2019-05-26T11:31:31.378Z,3.50
2019-05-26T11:32:31.381Z,3.30
2019-05-26T11:33:31.408Z,3.10
2019-05-26T11:34:31.380Z,3.00
2019-05-26T11:35:31.375Z,3.40
2019-05-26T11:36:31.394Z,3.20
2019-05-26T11:37:31.363Z,3.30
2019-05-26T11:38:33.732Z,3.00
2019-05-26T11:39:31.439Z,2.90
2019-05-26T11:40:31.408Z,3.10
2019-05-26T11:41:31.411Z,3.20
2019-05-26T11:42:31.439Z,2.90
2019-05-26T11:43:31.444Z,3.30
2019-05-26T11:44:31.495Z,2.90
2019-05-26T11:45:31.494Z,2.90
2019-05-26T11:46:31.494Z,3.30
2019-05-26T11:47:31.493Z,3.20
2019-05-26T11:48:31.499Z,3.10
2019-05-26T11:49:31.526Z,3.40
2019-05-26T11:50:31.552Z,3.10
2019-05-26T11:51:31.575Z,3.00
2019-05-26T11:52:31.557Z,2.60
2019-05-26T11:53:31.566Z,3.00
2019-05-26T11:54:34.447Z,3.10
2019-05-26T11:55:31.572Z,3.10
2019-05-26T11:56:31.596Z,3.40
2019-05-26T11:57:31.626Z,3.30
2019-05-26T11:58:31.577Z,3.00
2019-05-26T11:59:31.590Z,3.00
2019-05-26T12:00:31.600Z,3.10
2019-05-26T12:01:31.591Z,3.00
2019-05-26T12:02:31.584Z,3.10
2019-05-26T12:03:31.630Z,2.90
2019-05-26T12:04:31.568Z,3.30
2019-05-26T12:05:31.604Z,3.00
2019-05-26T12:06:31.604Z,3.00
2019-05-26T12:07:31.578Z,2.80
2019-05-26T12:08:31.612Z,3.10
2019-05-26T12:09:31.641Z,3.20
2019-05-26T12:10:31.607Z,3.30
2019-05-26T12:11:31.594Z,2.80
2019-05-26T12:12:31.610Z,2.70
2019-05-26T12:13:31.612Z,3.00
2019-05-26T12:14:35.299Z,2.80
2019-05-26T12:15:31.640Z,2.80
2019-05-26T12:16:31.586Z,2.80
2019-05-26T12:17:31.609Z,3.10
2019-05-26T12:18:31.612Z,3.20
2019-05-26T12:19:31.609Z,3.30
2019-05-26T12:20:31.632Z,2.70
2019-05-26T12:21:31.649Z,3.00
2019-05-26T12:22:31.606Z,3.20
2019-05-26T12:23:32.062Z,2.90
2019-05-26T12:24:31.623Z,3.00
2019-05-26T12:25:31.612Z,3.20
2019-05-26T12:26:31.609Z,3.10
2019-05-26T12:27:31.646Z,2.90
2019-05-26T12:28:31.608Z,2.90
2019-05-26T12:29:31.623Z,2.80
2019-05-26T12:30:31.630Z,3.10
2019-05-26T12:31:31.624Z,2.80
2019-05-26T12:32:31.644Z,2.90
2019-05-26T12:33:31.645Z,3.20
2019-05-26T12:34:31.629Z,2.80
2019-05-26T12:35:31.644Z,2.90
2019-05-26T12:36:31.654Z,2.90
2019-05-26T12:37:31.658Z,2.60
2019-05-26T12:38:31.650Z,2.90
2019-05-26T12:39:31.664Z,2.90
2019-05-26T12:40:31.637Z,2.70
2019-05-26T12:41:34.977Z,2.60
2019-05-26T12:42:31.659Z,2.80
2019-05-26T12:43:31.651Z,2.80
2019-05-26T12:44:31.645Z,3.00
2019-05-26T12:45:31.673Z,3.20
2019-05-26T12:46:31.634Z,2.90
2019-05-26T12:47:31.645Z,2.90
2019-05-26T12:48:31.652Z,3.30
2019-05-26T12:49:31.659Z,3.10
2019-05-26T12:50:31.648Z,3.00
2019-05-26T12:51:31.677Z,3.20
2019-05-26T12:52:31.647Z,3.10
2019-05-26T12:53:31.662Z,2.80
2019-05-26T12:54:31.668Z,2.80
2019-05-26T12:55:31.663Z,3.10
2019-05-26T12:56:31.688Z,3.00
2019-05-26T12:57:31.753Z,3.10
2019-05-26T12:58:31.647Z,2.90
2019-05-26T12:59:31.678Z,3.00
2019-05-26T13:00:47.494Z,3.20
2019-05-26T13:01:31.630Z,3.00
2019-05-26T13:02:31.677Z,3.10
2019-05-26T13:03:31.685Z,3.40
2019-05-26T13:04:31.655Z,3.10
2019-05-26T13:05:31.671Z,3.10
2019-05-26T13:06:31.683Z,3.10
2019-05-26T13:07:31.643Z,3.40